AO2

Tweets about a recent trend: AO2

RT @KSFO_wx: #KSFO 251156Z 30006KT 10SM OVC044 12/10 A3015 RMK AO2 SLP209 70074 T01170100 10122 20111 55004
#PHNL 251153Z 00000KT 10SM FEW025 22/19 A3019 RMK AO2 SLP223 T02220189 10250 20222 57006
#KLOT 251155Z AUTO 06010KT 5SM RA BKN004 OVC050 05/05 A3003 RMK AO2 P0015 60016 70040 T00500050 10053 20042
#PANC 251153Z 01005KT 10SM CLR M08/M17 A2965 RMK AO2 SLP042 4/020 T10831172 11056 21083 58006 $
#KLAF 251154Z 15006KT 10SM FEW065 FEW095 16/12 A2998 RMK AO2 SLP150 T01560117 10178 20150 50003
#KMDW 251153Z 03008G18KT 6SM -RA BR OVC006 06/04 A3005 RMK AO2 RAE08B47 SLP180 P0000 60002 70050 T00560044 10056 20044 53006 $
#KSTL 251151Z 18010KT 10SM FEW011 SCT080 BKN250 14/12 A2984 RMK AO2 SLP097 60061 70078 T01440117 10183 20144 53003
#KDFW 251153Z 28011KT 10SM FEW028 13/07 A2996 RMK AO2 SLP138 70032 T01330067 10189 20133 53021
#KATL 251152Z 09006KT 10SM SCT050 BKN220 13/11 A3029 RMK AO2 SLP253 T01330111 10172 20133 51016 $
#KPBI 251153Z 09013KT 10SM SCT037 SCT046 BKN060 22/13 A3020 RMK AO2 SLP227 T02170133 10217 20217 53008
#KMIA 251153Z 09009KT 10SM SCT030 22/16 A3017 RMK AO2 SLP217 70053 T02170156 10222 20211 53009 $
#KLAX 251153Z 33007KT 10SM FEW011 FEW150 13/11 A3011 RMK AO2 SLP195 60000 T01330106 10150 20133 58006
#KORD 251151Z 02012KT 4SM -RA BR OVC005 05/03 A3005 RMK AO2 SLP179 P0012 60016 70016 T00500033 10056 20050 53003
#KJFK 251151Z 27005KT 10SM BKN150 BKN250 13/05 A3015 RMK AO2 SLP210 T01280050 10128 20056 53021
#KSFO 251156Z 30006KT 10SM OVC044 12/10 A3015 RMK AO2 SLP209 70074 T01170100 10122 20111 55004
KOSH 251153Z 04012KT 5SM BR OVC004 02/01 A3016 RMK AO2 UPE00 CIG 004V008 SLP225 P0000 60000 70032 T00170006 10017 20011 51013..
KORD 251151Z 02012KT 4SM -RA BR OVC005 05/03 A3005 RMK AO2 SLP179 P0012 60016 70016 T00500033 10056 20050 53003
KATL 251152Z 09006KT 10SM SCT050 BKN220 13/11 A3029 RMK AO2 SLP253 T01330111 10172 20133 51016 $
KJFK 251151Z 27005KT 10SM BKN150 BKN250 13/05 A3015 RMK AO2 SLP210 T01280050 10128 20056 53021
KONT 251153Z 25006KT 10SM SCT090 BKN150 BKN200 11/07 A3010 RMK AO2 SLP187 60000 T01110072 10128 20111 55019
KSFO 251156Z 30006KT 10SM OVC044 12/10 A3015 RMK AO2 SLP209 70074 T01170100 10122 20111 55004
KJFK 251151Z 27005KT 10SM BKN150 BKN250 13/05 A3015 RMK AO2 SLP210 T01280050 10128 20056 53021
KLAX 251153Z 33007KT 10SM FEW011 FEW150 13/11 A3011 RMK AO2 SLP195 60000 T01330106 10150 20133 58006
#KLOT 251135Z AUTO 06013G16KT 4SM -VCTSRA SCT006 BKN029 OVC070 05/05 A3001 RMK AO2 LTG DSNT SE P0012 T00480048
#KSTL 251123Z 17010KT 10SM SCT010 BKN080 15/13 A2983 RMK AO2 T01500128